sensor_id;sensor_type;location;lat;lon;timestamp;pressure;altitude;pressure_sealevel;temperature;humidity
34674;BME280;20879;55.668;37.858;2023-04-28T00:01:12;99267.03;;;10.09;85.93
34674;BME280;20879;55.668;37.858;2023-04-28T00:03:42;99267.97;;;10.05;86.11
34674;BME280;20879;55.668;37.858;2023-04-28T00:06:11;99259.47;;;10.00;86.37
34674;BME280;20879;55.668;37.858;2023-04-28T00:08:42;99263.75;;;10.00;87.09
34674;BME280;20879;55.668;37.858;2023-04-28T00:11:12;99264.78;;;9.91;87.05
34674;BME280;20879;55.668;37.858;2023-04-28T00:13:41;99262.19;;;9.92;86.98
34674;BME280;20879;55.668;37.858;2023-04-28T00:16:22;99262.91;;;9.99;87.18
34674;BME280;20879;55.668;37.858;2023-04-28T00:19:08;99253.38;;;10.01;87.37
34674;BME280;20879;55.668;37.858;2023-04-28T00:21:37;99254.31;;;9.97;87.18
34674;BME280;20879;55.668;37.858;2023-04-28T00:24:10;99244.03;;;9.94;87.13
34674;BME280;20879;55.668;37.858;2023-04-28T00:26:44;99245.03;;;9.87;87.14
34674;BME280;20879;55.668;37.858;2023-04-28T00:29:14;99250.28;;;9.84;87.18
34674;BME280;20879;55.668;37.858;2023-04-28T00:31:43;99246.06;;;9.79;87.76
34674;BME280;20879;55.668;37.858;2023-04-28T00:34:13;99241.84;;;9.75;87.55
34674;BME280;20879;55.668;37.858;2023-04-28T00:36:42;99249.66;;;9.72;87.86
34674;BME280;20879;55.668;37.858;2023-04-28T00:39:20;99244.56;;;9.66;88.50
34674;BME280;20879;55.668;37.858;2023-04-28T00:41:51;99247.09;;;9.69;88.08
34674;BME280;20879;55.668;37.858;2023-04-28T00:44:26;99247.19;;;9.65;88.58
34674;BME280;20879;55.668;37.858;2023-04-28T00:46:55;99249.00;;;9.61;88.80
34674;BME280;20879;55.668;37.858;2023-04-28T00:49:26;99243.88;;;9.58;88.97
34674;BME280;20879;55.668;37.858;2023-04-28T00:52:03;99252.50;;;9.58;89.27
34674;BME280;20879;55.668;37.858;2023-04-28T00:54:36;99244.63;;;9.63;89.55
34674;BME280;20879;55.668;37.858;2023-04-28T00:57:24;99244.63;;;9.63;89.06
34674;BME280;20879;55.668;37.858;2023-04-28T00:59:54;99237.78;;;9.62;89.38
34674;BME280;20879;55.668;37.858;2023-04-28T01:02:36;99242.03;;;9.65;88.97
34674;BME280;20879;55.668;37.858;2023-04-28T01:05:07;99251.44;;;9.69;89.57
34674;BME280;20879;55.668;37.858;2023-04-28T01:07:37;99244.50;;;9.69;88.86
34674;BME280;20879;55.668;37.858;2023-04-28T01:10:11;99241.94;;;9.71;89.20
34674;BME280;20879;55.668;37.858;2023-04-28T01:12:40;99248.81;;;9.70;88.88
34674;BME280;20879;55.668;37.858;2023-04-28T01:15:15;99246.19;;;9.72;89.89
34674;BME280;20879;55.668;37.858;2023-04-28T01:17:58;99253.22;;;9.67;89.70
34674;BME280;20879;55.668;37.858;2023-04-28T01:20:28;99258.31;;;9.70;89.83
34674;BME280;20879;55.668;37.858;2023-04-28T01:22:58;99257.41;;;9.72;89.71
34674;BME280;20879;55.668;37.858;2023-04-28T01:25:35;99248.84;;;9.69;89.66
34674;BME280;20879;55.668;37.858;2023-04-28T01:28:04;99261.41;;;9.89;89.61
34674;BME280;20879;55.668;37.858;2023-04-28T01:30:33;99268.31;;;9.87;88.69
34674;BME280;20879;55.668;37.858;2023-04-28T01:33:03;99259.75;;;9.85;88.39
34674;BME280;20879;55.668;37.858;2023-04-28T01:35:33;99262.31;;;9.86;88.52
34674;BME280;20879;55.668;37.858;2023-04-28T01:38:02;99263.13;;;9.87;89.01
34674;BME280;20879;55.668;37.858;2023-04-28T01:40:47;99263.22;;;9.84;88.97
34674;BME280;20879;55.668;37.858;2023-04-28T01:43:17;99267.47;;;9.86;89.25
34674;BME280;20879;55.668;37.858;2023-04-28T01:45:46;99259.75;;;9.85;89.16
34674;BME280;20879;55.668;37.858;2023-04-28T01:48:16;99255.47;;;9.82;88.98
34674;BME280;20879;55.668;37.858;2023-04-28T01:53:37;99257.13;;;9.86;88.75
34674;BME280;20879;55.668;37.858;2023-04-28T01:56:27;99257.03;;;9.91;88.94
34674;BME280;20879;55.668;37.858;2023-04-28T01:58:58;99259.63;;;9.91;88.77
34674;BME280;20879;55.668;37.858;2023-04-28T02:01:28;99245.94;;;9.86;88.93
34674;BME280;20879;55.668;37.858;2023-04-28T02:03:57;99258.72;;;9.93;89.31
34674;BME280;20879;55.668;37.858;2023-04-28T02:06:44;99253.44;;;9.98;89.09
34674;BME280;20879;55.668;37.858;2023-04-28T02:09:13;99237.09;;;9.97;88.43
34674;BME280;20879;55.668;37.858;2023-04-28T02:17:43;99239.28;;;10.16;87.72
34674;BME280;20879;55.668;37.858;2023-04-28T02:22:59;99249.41;;;10.27;87.65
34674;BME280;20879;55.668;37.858;2023-04-28T02:25:34;99230.63;;;10.17;88.00
34674;BME280;20879;55.668;37.858;2023-04-28T02:28:14;99253.47;;;10.40;87.60
34674;BME280;20879;55.668;37.858;2023-04-28T02:30:43;99248.16;;;10.46;86.84
34674;BME280;20879;55.668;37.858;2023-04-28T02:33:13;99256.63;;;10.53;86.42
34674;BME280;20879;55.668;37.858;2023-04-28T02:35:58;99254.66;;;10.63;86.50
34674;BME280;20879;55.668;37.858;2023-04-28T02:38:28;99241.84;;;10.58;86.05
34674;BME280;20879;55.668;37.858;2023-04-28T02:41:16;99267.47;;;10.71;85.70
34674;BME280;20879;55.668;37.858;2023-04-28T02:43:52;99275.16;;;10.74;85.55
34674;BME280;20879;55.668;37.858;2023-04-28T02:46:23;99277.75;;;10.74;84.93
34674;BME280;20879;55.668;37.858;2023-04-28T02:48:52;99272.69;;;10.69;85.40
34674;BME280;20879;55.668;37.858;2023-04-28T02:51:28;99267.50;;;10.69;85.23
34674;BME280;20879;55.668;37.858;2023-04-28T02:53:57;99263.09;;;10.73;84.78
34674;BME280;20879;55.668;37.858;2023-04-28T02:56:34;99257.06;;;10.72;84.77
34674;BME280;20879;55.668;37.858;2023-04-28T02:59:18;99267.09;;;10.86;85.03
34674;BME280;20879;55.668;37.858;2023-04-28T03:01:48;99273.03;;;10.91;84.51
34674;BME280;20879;55.668;37.858;2023-04-28T03:04:17;99267.88;;;10.90;84.28
34674;BME280;20879;55.668;37.858;2023-04-28T03:06:49;99265.94;;;10.98;83.74
34674;BME280;20879;55.668;37.858;2023-04-28T03:09:23;99261.56;;;11.01;83.82
34674;BME280;20879;55.668;37.858;2023-04-28T03:11:52;99262.47;;;10.99;84.10
34674;BME280;20879;55.668;37.858;2023-04-28T03:14:24;99269.94;;;11.13;83.71
34674;BME280;20879;55.668;37.858;2023-04-28T03:16:53;99266.13;;;11.26;83.55
34674;BME280;20879;55.668;37.858;2023-04-28T03:19:23;99269.81;;;11.17;82.90
34674;BME280;20879;55.668;37.858;2023-04-28T03:21:52;99280.06;;;11.22;82.95
34674;BME280;20879;55.668;37.858;2023-04-28T03:24:27;99274.75;;;11.27;82.55
34674;BME280;20879;55.668;37.858;2023-04-28T03:26:57;99284.31;;;11.25;82.78
34674;BME280;20879;55.668;37.858;2023-04-28T03:29:30;99291.19;;;11.26;82.67
34674;BME280;20879;55.668;37.858;2023-04-28T03:32:00;99286.75;;;11.31;82.78
34674;BME280;20879;55.668;37.858;2023-04-28T03:34:29;99292.66;;;11.36;81.94
34674;BME280;20879;55.668;37.858;2023-04-28T03:37:04;99292.59;;;11.39;82.40
34674;BME280;20879;55.668;37.858;2023-04-28T03:39:40;99289.19;;;11.37;82.38
34674;BME280;20879;55.668;37.858;2023-04-28T03:42:10;99300.38;;;11.37;82.35
34674;BME280;20879;55.668;37.858;2023-04-28T03:44:59;99298.59;;;11.41;82.43
34674;BME280;20879;55.668;37.858;2023-04-28T03:47:37;99291.53;;;11.46;82.33
34674;BME280;20879;55.668;37.858;2023-04-28T03:50:07;99285.34;;;11.52;81.63
34674;BME280;20879;55.668;37.858;2023-04-28T03:52:37;99281.66;;;11.61;81.87
34674;BME280;20879;55.668;37.858;2023-04-28T03:55:08;99292.66;;;11.70;81.47
34674;BME280;20879;55.668;37.858;2023-04-28T03:57:37;99292.66;;;11.70;80.78
34674;BME280;20879;55.668;37.858;2023-04-28T04:00:11;99280.28;;;11.80;80.27
34674;BME280;20879;55.668;37.858;2023-04-28T04:02:51;99285.78;;;12.02;79.85
34674;BME280;20879;55.668;37.858;2023-04-28T04:05:37;99286.88;;;12.23;79.57
34674;BME280;20879;55.668;37.858;2023-04-28T04:08:07;99290.19;;;12.30;79.06
34674;BME280;20879;55.668;37.858;2023-04-28T04:10:37;99284.66;;;12.41;78.67
34674;BME280;20879;55.668;37.858;2023-04-28T04:13:06;99283.03;;;12.67;78.08
34674;BME280;20879;55.668;37.858;2023-04-28T04:15:38;99284.19;;;12.85;77.38
34674;BME280;20879;55.668;37.858;2023-04-28T04:18:08;99286.00;;;13.09;76.37
34674;BME280;20879;55.668;37.858;2023-04-28T04:21:03;99287.97;;;13.29;74.65
34674;BME280;20879;55.668;37.858;2023-04-28T04:23:35;99293.88;;;13.35;74.97
34674;BME280;20879;55.668;37.858;2023-04-28T04:26:05;99294.72;;;13.35;74.60
34674;BME280;20879;55.668;37.858;2023-04-28T04:28:34;99308.66;;;13.34;74.19
34674;BME280;20879;55.668;37.858;2023-04-28T04:31:07;99298.31;;;13.31;74.38
34674;BME280;20879;55.668;37.858;2023-04-28T04:33:43;99299.69;;;13.43;73.83
34674;BME280;20879;55.668;37.858;2023-04-28T04:36:39;99303.03;;;13.72;73.80
34674;BME280;20879;55.668;37.858;2023-04-28T04:39:08;99302.28;;;13.93;73.29
34674;BME280;20879;55.668;37.858;2023-04-28T04:41:38;99300.16;;;14.28;72.14
34674;BME280;20879;55.668;37.858;2023-04-28T04:44:31;99311.94;;;14.84;70.82
34674;BME280;20879;55.668;37.858;2023-04-28T04:47:02;99314.84;;;15.21;68.60
34674;BME280;20879;55.668;37.858;2023-04-28T04:49:34;99313.50;;;15.33;68.38
34674;BME280;20879;55.668;37.858;2023-04-28T04:52:04;99309.00;;;15.36;67.92
34674;BME280;20879;55.668;37.858;2023-04-28T04:54:39;99296.75;;;15.38;67.80
34674;BME280;20879;55.668;37.858;2023-04-28T04:57:10;99320.22;;;15.59;67.32
34674;BME280;20879;55.668;37.858;2023-04-28T04:59:58;99313.97;;;15.63;66.97
34674;BME280;20879;55.668;37.858;2023-04-28T05:02:36;99319.88;;;15.68;65.48
34674;BME280;20879;55.668;37.858;2023-04-28T05:05:06;99312.88;;;15.48;66.60
34674;BME280;20879;55.668;37.858;2023-04-28T05:08:11;99315.66;;;15.23;67.23
34674;BME280;20879;55.668;37.858;2023-04-28T05:13:30;99311.03;;;15.50;67.10
34674;BME280;20879;55.668;37.858;2023-04-28T05:16:03;99309.28;;;15.30;66.97
34674;BME280;20879;55.668;37.858;2023-04-28T05:18:51;99327.88;;;15.21;67.65
34674;BME280;20879;55.668;37.858;2023-04-28T05:21:21;99328.19;;;15.13;67.73
34674;BME280;20879;55.668;37.858;2023-04-28T05:23:55;99316.50;;;15.01;67.77
34674;BME280;20879;55.668;37.858;2023-04-28T05:26:25;99324.75;;;15.13;68.05
34674;BME280;20879;55.668;37.858;2023-04-28T05:28:59;99317.72;;;15.15;67.58
34674;BME280;20879;55.668;37.858;2023-04-28T05:31:28;99322.59;;;15.23;67.60
34674;BME280;20879;55.668;37.858;2023-04-28T05:34:00;99322.38;;;15.29;67.41
34674;BME280;20879;55.668;37.858;2023-04-28T05:36:29;99328.44;;;15.50;67.20
34674;BME280;20879;55.668;37.858;2023-04-28T05:38:59;99335.34;;;15.30;66.86
34674;BME280;20879;55.668;37.858;2023-04-28T05:41:28;99327.94;;;15.19;67.10
34674;BME280;20879;55.668;37.858;2023-04-28T05:43:58;99332.75;;;15.30;67.13
34674;BME280;20879;55.668;37.858;2023-04-28T05:46:29;99329.81;;;15.38;67.25
34674;BME280;20879;55.668;37.858;2023-04-28T05:49:02;99317.31;;;15.46;67.10
34674;BME280;20879;55.668;37.858;2023-04-28T05:51:38;99321.03;;;15.61;66.79
34674;BME280;20879;55.668;37.858;2023-04-28T05:54:08;99312.53;;;15.77;66.22
34674;BME280;20879;55.668;37.858;2023-04-28T05:56:45;99317.16;;;16.11;65.92
34674;BME280;20879;55.668;37.858;2023-04-28T05:59:20;99318.03;;;16.50;64.91
34674;BME280;20879;55.668;37.858;2023-04-28T06:01:49;99309.44;;;16.67;64.02
34674;BME280;20879;55.668;37.858;2023-04-28T06:04:21;99313.69;;;16.88;62.96
34674;BME280;20879;55.668;37.858;2023-04-28T06:07:02;99317.91;;;16.91;63.59
34674;BME280;20879;55.668;37.858;2023-04-28T06:09:32;99321.16;;;16.77;63.25
34674;BME280;20879;55.668;37.858;2023-04-28T06:12:03;99319.06;;;16.66;63.77
34674;BME280;20879;55.668;37.858;2023-04-28T06:14:33;99268.25;;;16.34;64.09
34674;BME280;20879;55.668;37.858;2023-04-28T06:17:04;99311.13;;;16.87;63.52
34674;BME280;20879;55.668;37.858;2023-04-28T06:22:19;99312.16;;;17.91;60.13
34674;BME280;20879;55.668;37.858;2023-04-28T06:24:53;99323.16;;;18.47;58.88
34674;BME280;20879;55.668;37.858;2023-04-28T06:27:31;99326.06;;;18.74;57.83
34674;BME280;20879;55.668;37.858;2023-04-28T06:30:00;99332.56;;;18.99;57.31
34674;BME280;20879;55.668;37.858;2023-04-28T06:32:31;99317.06;;;19.10;56.65
34674;BME280;20879;55.668;37.858;2023-04-28T06:35:01;99320.28;;;19.15;56.60
34674;BME280;20879;55.668;37.858;2023-04-28T06:37:33;99298.53;;;18.97;56.37
34674;BME280;20879;55.668;37.858;2023-04-28T06:40:13;99334.59;;;19.10;56.64
34674;BME280;20879;55.668;37.858;2023-04-28T06:42:50;99330.78;;;19.15;57.14
34674;BME280;20879;55.668;37.858;2023-04-28T06:45:25;99333.50;;;19.14;57.20
34674;BME280;20879;55.668;37.858;2023-04-28T06:47:57;99337.59;;;18.88;57.59
34674;BME280;20879;55.668;37.858;2023-04-28T06:50:31;99335.50;;;18.61;58.53
34674;BME280;20879;55.668;37.858;2023-04-28T06:53:07;99341.19;;;18.20;59.15
34674;BME280;20879;55.668;37.858;2023-04-28T06:55:37;99337.50;;;17.89;60.96
34674;BME280;20879;55.668;37.858;2023-04-28T06:58:06;99341.63;;;17.59;62.06
34674;BME280;20879;55.668;37.858;2023-04-28T07:00:36;99343.47;;;17.40;62.34
34674;BME280;20879;55.668;37.858;2023-04-28T07:03:05;99342.53;;;17.23;63.72
34674;BME280;20879;55.668;37.858;2023-04-28T07:05:35;99334.88;;;17.19;63.75
34674;BME280;20879;55.668;37.858;2023-04-28T07:08:07;99342.56;;;17.22;63.27
34674;BME280;20879;55.668;37.858;2023-04-28T07:10:36;99344.31;;;17.58;63.00
34674;BME280;20879;55.668;37.858;2023-04-28T07:13:05;99341.69;;;17.75;62.58
34674;BME280;20879;55.668;37.858;2023-04-28T07:15:34;99317.97;;;17.61;62.46
34674;BME280;20879;55.668;37.858;2023-04-28T07:18:04;99348.25;;;17.67;62.76
34674;BME280;20879;55.668;37.858;2023-04-28T07:20:33;99339.59;;;17.29;63.93
34674;BME280;20879;55.668;37.858;2023-04-28T07:23:03;99335.34;;;17.09;64.72
34674;BME280;20879;55.668;37.858;2023-04-28T07:25:34;99352.16;;;17.04;65.83
34674;BME280;20879;55.668;37.858;2023-04-28T07:28:04;99343.53;;;17.38;64.28
34674;BME280;20879;55.668;37.858;2023-04-28T07:30:39;99347.16;;;17.53;64.45
34674;BME280;20879;55.668;37.858;2023-04-28T07:33:08;99348.41;;;17.63;63.55
34674;BME280;20879;55.668;37.858;2023-04-28T07:35:37;99342.91;;;17.51;63.71
34674;BME280;20879;55.668;37.858;2023-04-28T07:38:07;99350.78;;;17.51;64.17
34674;BME280;20879;55.668;37.858;2023-04-28T07:40:38;99343.84;;;17.32;64.34
34674;BME280;20879;55.668;37.858;2023-04-28T07:43:26;99353.84;;;17.24;64.71
34674;BME280;20879;55.668;37.858;2023-04-28T07:45:55;99355.28;;;17.12;65.70
34674;BME280;20879;55.668;37.858;2023-04-28T07:48:25;99358.06;;;17.26;65.82
34674;BME280;20879;55.668;37.858;2023-04-28T07:50:55;99355.38;;;17.28;65.48
34674;BME280;20879;55.668;37.858;2023-04-28T07:53:24;99348.44;;;17.27;65.29
34674;BME280;20879;55.668;37.858;2023-04-28T07:55:56;99347.69;;;17.60;64.93
34674;BME280;20879;55.668;37.858;2023-04-28T07:58:44;99340.09;;;17.90;63.26
34674;BME280;20879;55.668;37.858;2023-04-28T08:01:34;99340.38;;;18.35;62.49
34674;BME280;20879;55.668;37.858;2023-04-28T08:06:49;99305.56;;;18.65;60.46
34674;BME280;20879;55.668;37.858;2023-04-28T08:09:23;99340.66;;;18.78;60.75
34674;BME280;20879;55.668;37.858;2023-04-28T08:11:56;99338.72;;;18.66;61.21
34674;BME280;20879;55.668;37.858;2023-04-28T08:14:27;99335.34;;;18.64;61.15
34674;BME280;20879;55.668;37.858;2023-04-28T08:16:56;99330.25;;;18.61;60.94
34674;BME280;20879;55.668;37.858;2023-04-28T08:19:26;99334.72;;;18.43;60.88
34674;BME280;20879;55.668;37.858;2023-04-28T08:21:56;99291.53;;;18.01;61.23
34674;BME280;20879;55.668;37.858;2023-04-28T08:24:25;99330.78;;;18.18;61.32
34674;BME280;20879;55.668;37.858;2023-04-28T08:26:58;99326.97;;;18.08;61.75
34674;BME280;20879;55.668;37.858;2023-04-28T08:29:29;99334.28;;;18.19;61.42
34674;BME280;20879;55.668;37.858;2023-04-28T08:31:58;99338.41;;;18.23;61.14
34674;BME280;20879;55.668;37.858;2023-04-28T08:34:39;99334.38;;;18.49;60.50
34674;BME280;20879;55.668;37.858;2023-04-28T08:37:08;99290.19;;;18.59;60.21
34674;BME280;20879;55.668;37.858;2023-04-28T08:39:37;99330.13;;;18.96;59.29
34674;BME280;20879;55.668;37.858;2023-04-28T08:42:09;99335.09;;;18.84;59.26
34674;BME280;20879;55.668;37.858;2023-04-28T08:44:38;99334.78;;;18.91;59.47
34674;BME280;20879;55.668;37.858;2023-04-28T08:47:12;99335.25;;;18.49;60.39
34674;BME280;20879;55.668;37.858;2023-04-28T08:49:43;99345.28;;;18.41;60.47
34674;BME280;20879;55.668;37.858;2023-04-28T08:52:16;99338.84;;;18.31;60.71
34674;BME280;20879;55.668;37.858;2023-04-28T08:54:47;99335.47;;;18.29;61.05
34674;BME280;20879;55.668;37.858;2023-04-28T08:57:25;99314.22;;;18.17;61.53
34674;BME280;20879;55.668;37.858;2023-04-28T08:59:58;99338.56;;;18.20;61.66
34674;BME280;20879;55.668;37.858;2023-04-28T09:02:31;99333.53;;;17.99;62.60
34674;BME280;20879;55.668;37.858;2023-04-28T09:05:06;99333.84;;;17.93;62.83
34674;BME280;20879;55.668;37.858;2023-04-28T09:07:37;99337.59;;;17.87;63.70
34674;BME280;20879;55.668;37.858;2023-04-28T09:10:17;99337.38;;;17.92;64.64
34674;BME280;20879;55.668;37.858;2023-04-28T09:12:51;99333.97;;;18.07;64.93
34674;BME280;20879;55.668;37.858;2023-04-28T09:15:25;99327.16;;;18.21;64.70
34674;BME280;20879;55.668;37.858;2023-04-28T09:18:01;99339.88;;;18.44;64.03
34674;BME280;20879;55.668;37.858;2023-04-28T09:20:32;99337.88;;;18.49;63.88
34674;BME280;20879;55.668;37.858;2023-04-28T09:23:13;99338.59;;;18.36;65.72
34674;BME280;20879;55.668;37.858;2023-04-28T09:25:57;99336.44;;;18.10;65.95
34674;BME280;20879;55.668;37.858;2023-04-28T09:28:30;99341.09;;;17.70;66.41
34674;BME280;20879;55.668;37.858;2023-04-28T09:31:00;99342.69;;;17.38;67.10
34674;BME280;20879;55.668;37.858;2023-04-28T09:33:29;99342.69;;;17.01;69.04
34674;BME280;20879;55.668;37.858;2023-04-28T09:35:59;99347.22;;;16.78;70.16
34674;BME280;20879;55.668;37.858;2023-04-28T09:38:42;99295.72;;;16.42;70.94
34674;BME280;20879;55.668;37.858;2023-04-28T09:41:12;99343.97;;;16.54;71.01
34674;BME280;20879;55.668;37.858;2023-04-28T09:43:44;99337.47;;;16.44;71.67
34674;BME280;20879;55.668;37.858;2023-04-28T09:46:27;99346.38;;;16.40;72.04
34674;BME280;20879;55.668;37.858;2023-04-28T09:49:00;99349.34;;;16.12;72.64
34674;BME280;20879;55.668;37.858;2023-04-28T09:51:30;99345.47;;;15.81;73.50
34674;BME280;20879;55.668;37.858;2023-04-28T09:54:00;99351.69;;;15.56;74.74
34674;BME280;20879;55.668;37.858;2023-04-28T09:56:32;99332.34;;;15.40;76.08
34674;BME280;20879;55.668;37.858;2023-04-28T09:59:08;99346.81;;;15.26;77.24
34674;BME280;20879;55.668;37.858;2023-04-28T10:01:40;99345.03;;;15.27;77.94
34674;BME280;20879;55.668;37.858;2023-04-28T10:04:11;99355.47;;;15.27;77.92
34674;BME280;20879;55.668;37.858;2023-04-28T10:06:41;99339.47;;;15.14;78.82
34674;BME280;20879;55.668;37.858;2023-04-28T10:09:12;99359.97;;;15.23;79.67
34674;BME280;20879;55.668;37.858;2023-04-28T10:11:43;99363.25;;;15.28;79.94
34674;BME280;20879;55.668;37.858;2023-04-28T10:14:14;99326.69;;;15.08;81.26
34674;BME280;20879;55.668;37.858;2023-04-28T10:16:51;99364.44;;;15.42;80.24
34674;BME280;20879;55.668;37.858;2023-04-28T10:19:20;99362.13;;;15.56;79.49
34674;BME280;20879;55.668;37.858;2023-04-28T10:22:05;99362.31;;;15.72;79.80
34674;BME280;20879;55.668;37.858;2023-04-28T10:24:52;99363.06;;;15.76;80.22
34674;BME280;20879;55.668;37.858;2023-04-28T10:27:39;99359.59;;;15.75;79.23
34674;BME280;20879;55.668;37.858;2023-04-28T10:30:17;99359.75;;;15.93;78.53
34674;BME280;20879;55.668;37.858;2023-04-28T10:33:21;99355.88;;;16.41;77.10
34674;BME280;20879;55.668;37.858;2023-04-28T10:35:52;99359.50;;;17.15;73.93
34674;BME280;20879;55.668;37.858;2023-04-28T10:38:21;99360.84;;;17.76;71.83
34674;BME280;20879;55.668;37.858;2023-04-28T10:40:52;99323.88;;;18.17;69.55
34674;BME280;20879;55.668;37.858;2023-04-28T10:43:33;99349.97;;;18.68;68.87
34674;BME280;20879;55.668;37.858;2023-04-28T10:46:12;99331.78;;;18.81;67.44
34674;BME280;20879;55.668;37.858;2023-04-28T10:48:55;99348.38;;;19.13;66.27
34674;BME280;20879;55.668;37.858;2023-04-28T10:51:28;99347.34;;;19.32;65.65
34674;BME280;20879;55.668;37.858;2023-04-28T10:54:15;99340.97;;;19.66;64.58
34674;BME280;20879;55.668;37.858;2023-04-28T10:59:44;99343.06;;;19.45;63.74
34674;BME280;20879;55.668;37.858;2023-04-28T11:02:39;99348.91;;;19.04;64.99
34674;BME280;20879;55.668;37.858;2023-04-28T11:05:18;99350.38;;;18.44;65.95
34674;BME280;20879;55.668;37.858;2023-04-28T11:11:25;99359.03;;;17.60;69.13
34674;BME280;20879;55.668;37.858;2023-04-28T11:14:30;99355.06;;;17.34;69.95
34674;BME280;20879;55.668;37.858;2023-04-28T11:17:01;99344.19;;;16.88;70.88
34674;BME280;20879;55.668;37.858;2023-04-28T11:19:34;99358.28;;;16.84;72.26
34674;BME280;20879;55.668;37.858;2023-04-28T11:22:13;99369.44;;;16.89;72.46
34674;BME280;20879;55.668;37.858;2023-04-28T11:24:57;99326.75;;;16.69;73.54
34674;BME280;20879;55.668;37.858;2023-04-28T11:27:28;99372.31;;;16.83;73.23
34674;BME280;20879;55.668;37.858;2023-04-28T11:30:02;99370.38;;;16.86;74.03
34674;BME280;20879;55.668;37.858;2023-04-28T11:32:34;99371.13;;;16.90;73.10
34674;BME280;20879;55.668;37.858;2023-04-28T11:35:08;99364.41;;;16.84;73.10
34674;BME280;20879;55.668;37.858;2023-04-28T11:40:14;99363.09;;;17.31;72.06
34674;BME280;20879;55.668;37.858;2023-04-28T11:42:48;99357.06;;;17.46;72.59
34674;BME280;20879;55.668;37.858;2023-04-28T11:45:18;99357.38;;;17.40;72.86
34674;BME280;20879;55.668;37.858;2023-04-28T11:47:47;99363.09;;;17.49;72.12
34674;BME280;20879;55.668;37.858;2023-04-28T11:50:34;99351.63;;;17.69;71.66
34674;BME280;20879;55.668;37.858;2023-04-28T11:53:04;99350.31;;;17.77;71.07
34674;BME280;20879;55.668;37.858;2023-04-28T11:55:33;99360.97;;;17.92;70.41
34674;BME280;20879;55.668;37.858;2023-04-28T11:58:17;99354.06;;;17.91;70.12
34674;BME280;20879;55.668;37.858;2023-04-28T12:01:06;99352.72;;;17.82;69.72
34674;BME280;20879;55.668;37.858;2023-04-28T12:03:42;99315.19;;;17.29;71.06
34674;BME280;20879;55.668;37.858;2023-04-28T12:06:19;99333.97;;;17.20;71.30
34674;BME280;20879;55.668;37.858;2023-04-28T12:08:49;99352.31;;;16.82;72.82
34674;BME280;20879;55.668;37.858;2023-04-28T12:11:18;99344.19;;;16.50;74.07
34674;BME280;20879;55.668;37.858;2023-04-28T12:14:09;99351.09;;;16.51;75.84
34674;BME280;20879;55.668;37.858;2023-04-28T12:16:52;99327.50;;;16.33;75.73
34674;BME280;20879;55.668;37.858;2023-04-28T12:19:22;99332.59;;;16.36;76.38
34674;BME280;20879;55.668;37.858;2023-04-28T12:22:01;99328.28;;;16.35;77.16
34674;BME280;20879;55.668;37.858;2023-04-28T12:24:31;99340.13;;;16.23;76.96
34674;BME280;20879;55.668;37.858;2023-04-28T12:27:15;99339.50;;;16.18;78.36
34674;BME280;20879;55.668;37.858;2023-04-28T12:29:46;99333.56;;;15.94;77.80
34674;BME280;20879;55.668;37.858;2023-04-28T12:32:17;99317.44;;;15.64;77.63
34674;BME280;20879;55.668;37.858;2023-04-28T12:34:51;99319.41;;;15.59;79.33
34674;BME280;20879;55.668;37.858;2023-04-28T12:37:28;99333.31;;;16.00;78.13
34674;BME280;20879;55.668;37.858;2023-04-28T12:39:57;99339.59;;;16.36;76.91
34674;BME280;20879;55.668;37.858;2023-04-28T12:42:33;99336.47;;;16.47;75.65
34674;BME280;20879;55.668;37.858;2023-04-28T12:51:48;99338.47;;;16.80;72.86
34674;BME280;20879;55.668;37.858;2023-04-28T12:54:18;99334.66;;;16.68;73.28
34674;BME280;20879;55.668;37.858;2023-04-28T12:56:53;99317.13;;;16.51;73.74
34674;BME280;20879;55.668;37.858;2023-04-28T12:59:27;99336.13;;;16.54;73.99
34674;BME280;20879;55.668;37.858;2023-04-28T13:01:57;99337.13;;;16.52;74.39
34674;BME280;20879;55.668;37.858;2023-04-28T13:04:26;99331.03;;;16.51;74.21
34674;BME280;20879;55.668;37.858;2023-04-28T13:06:59;99333.31;;;16.40;73.85
34674;BME280;20879;55.668;37.858;2023-04-28T13:09:34;99329.47;;;16.28;73.86
34674;BME280;20879;55.668;37.858;2023-04-28T13:12:05;99318.44;;;16.02;74.94
34674;BME280;20879;55.668;37.858;2023-04-28T13:14:44;99322.75;;;15.83;75.11
34674;BME280;20879;55.668;37.858;2023-04-28T13:17:13;99329.56;;;15.65;75.71
34674;BME280;20879;55.668;37.858;2023-04-28T13:19:43;99323.25;;;15.50;76.39
34674;BME280;20879;55.668;37.858;2023-04-28T13:22:20;99328.31;;;15.32;77.36
34674;BME280;20879;55.668;37.858;2023-04-28T13:24:49;99330.03;;;15.11;78.44
34674;BME280;20879;55.668;37.858;2023-04-28T13:27:18;99295.59;;;14.81;79.75
34674;BME280;20879;55.668;37.858;2023-04-28T13:29:48;99331.97;;;14.37;81.25
34674;BME280;20879;55.668;37.858;2023-04-28T13:32:22;99343.50;;;14.06;83.81
34674;BME280;20879;55.668;37.858;2023-04-28T13:34:59;99335.63;;;13.82;84.89
34674;BME280;20879;55.668;37.858;2023-04-28T13:37:31;99343.94;;;13.68;86.42
34674;BME280;20879;55.668;37.858;2023-04-28T13:40:01;99354.16;;;13.48;87.60
34674;BME280;20879;55.668;37.858;2023-04-28T13:42:37;99349.41;;;13.32;87.80
34674;BME280;20879;55.668;37.858;2023-04-28T13:45:07;99375.00;;;13.18;88.26
34674;BME280;20879;55.668;37.858;2023-04-28T13:47:36;99371.75;;;13.11;88.78
34674;BME280;20879;55.668;37.858;2023-04-28T13:50:06;99368.25;;;13.12;89.09
34674;BME280;20879;55.668;37.858;2023-04-28T13:52:44;99359.78;;;13.05;89.83
34674;BME280;20879;55.668;37.858;2023-04-28T13:55:13;99361.63;;;13.02;90.26
34674;BME280;20879;55.668;37.858;2023-04-28T13:57:43;99359.22;;;12.96;90.60
34674;BME280;20879;55.668;37.858;2023-04-28T14:00:13;99360.72;;;13.03;90.71